createdAt,value
2023-05-10T00:01:41.184Z,12.85
2023-05-10T00:06:42.835Z,12.82
2023-05-10T00:11:44.646Z,12.81
2023-05-10T00:16:47.686Z,12.70
2023-05-10T00:21:49.434Z,12.65
2023-05-10T00:26:50.982Z,12.63
2023-05-10T00:31:53.999Z,12.57
2023-05-10T00:36:55.825Z,12.55
2023-05-10T00:41:57.411Z,12.56
2023-05-10T00:47:00.929Z,12.55
2023-05-10T00:52:02.697Z,12.52
2023-05-10T00:57:04.311Z,12.48
2023-05-10T01:02:07.642Z,12.48
2023-05-10T01:07:09.362Z,12.44
2023-05-10T01:12:11.036Z,12.43
2023-05-10T01:17:14.343Z,12.40
2023-05-10T01:22:46.320Z,12.37
2023-05-10T01:28:15.328Z,12.36
2023-05-10T01:33:20.083Z,12.38
2023-05-10T01:38:30.671Z,12.43
2023-05-10T01:43:36.194Z,12.45
2023-05-10T01:48:42.488Z,12.43
2023-05-10T01:53:45.566Z,12.40
2023-05-10T01:58:49.327Z,12.43
2023-05-10T02:03:53.006Z,12.41
2023-05-10T02:08:54.973Z,12.42
2023-05-10T02:13:57.293Z,12.42
2023-05-10T02:19:04.636Z,12.44
2023-05-10T02:24:06.843Z,12.46
2023-05-10T02:29:09.042Z,12.43
2023-05-10T02:34:12.413Z,12.47
2023-05-10T02:39:14.441Z,12.49
2023-05-10T02:44:18.732Z,12.50
2023-05-10T02:49:23.348Z,12.49
2023-05-10T02:54:28.141Z,12.45
2023-05-10T02:59:29.784Z,12.47
2023-05-10T03:04:32.796Z,12.50
2023-05-10T03:09:34.637Z,12.48
2023-05-10T03:14:45.906Z,12.42
2023-05-10T03:19:54.384Z,12.39
2023-05-10T03:24:57.580Z,12.36
2023-05-10T03:30:02.783Z,12.43
2023-05-10T03:35:09.264Z,12.44
2023-05-10T03:40:11.633Z,12.46
2023-05-10T03:45:16.175Z,12.53
2023-05-10T03:50:19.594Z,12.63
2023-05-10T03:55:21.533Z,12.66
2023-05-10T04:00:23.385Z,12.67
2023-05-10T04:05:29.972Z,12.80
2023-05-10T04:10:32.018Z,12.90
2023-05-10T04:15:33.698Z,12.96
2023-05-10T04:20:36.740Z,13.02
2023-05-10T04:25:38.365Z,13.09
2023-05-10T04:30:40.645Z,13.13
2023-05-10T04:35:43.586Z,13.08
2023-05-10T04:40:45.210Z,12.99
2023-05-10T04:45:46.913Z,12.84
2023-05-10T04:50:49.873Z,12.95
2023-05-10T04:55:51.492Z,13.00
2023-05-10T05:00:53.196Z,12.94
2023-05-10T05:05:56.104Z,12.90
2023-05-10T05:10:57.794Z,13.01
2023-05-10T05:16:01.511Z,13.01
2023-05-10T05:21:04.526Z,13.01
2023-05-10T05:26:06.203Z,13.04
2023-05-10T05:31:08.052Z,13.06
2023-05-10T05:36:11.069Z,13.25
2023-05-10T05:41:12.809Z,13.43
2023-05-10T05:46:14.437Z,13.47
2023-05-10T05:51:17.387Z,13.52
2023-05-10T05:56:19.042Z,13.65
2023-05-10T06:01:21.094Z,13.82
2023-05-10T06:06:24.138Z,13.98
2023-05-10T06:11:26.588Z,14.01
2023-05-10T06:16:28.220Z,13.98
2023-05-10T06:21:31.136Z,13.96
2023-05-10T06:26:32.832Z,14.15
2023-05-10T06:31:34.489Z,14.48
2023-05-10T06:36:37.410Z,14.80
2023-05-10T06:41:39.240Z,14.97
2023-05-10T06:46:40.825Z,15.02
2023-05-10T06:51:43.911Z,15.12
2023-05-10T06:56:45.488Z,14.97
2023-05-10T07:01:47.117Z,15.00
2023-05-10T07:06:50.084Z,14.84
2023-05-10T07:11:51.780Z,15.03
2023-05-10T07:16:53.448Z,15.19
2023-05-10T07:21:56.400Z,15.32
2023-05-10T07:26:58.014Z,15.39
2023-05-10T07:32:00.006Z,15.66
2023-05-10T07:37:03.050Z,15.74
2023-05-10T07:42:04.834Z,15.63
2023-05-10T07:47:06.514Z,15.55
2023-05-10T07:52:09.548Z,15.58
2023-05-10T07:57:11.167Z,15.79
2023-05-10T08:02:12.830Z,16.14
2023-05-10T08:07:15.878Z,16.31
2023-05-10T08:12:17.518Z,16.59
2023-05-10T08:17:19.948Z,16.53
2023-05-10T08:22:23.449Z,16.32
2023-05-10T08:27:24.984Z,16.29
2023-05-10T08:32:26.634Z,16.26
2023-05-10T08:37:31.871Z,16.48
2023-05-10T08:42:35.686Z,16.66
2023-05-10T08:47:38.151Z,16.77
2023-05-10T08:52:41.399Z,16.93
2023-05-10T08:57:43.129Z,17.22
2023-05-10T09:02:45.437Z,17.65
2023-05-10T09:07:51.224Z,17.63
2023-05-10T09:12:53.299Z,17.33
2023-05-10T09:17:55.584Z,16.58
2023-05-10T09:22:58.652Z,16.16
2023-05-10T09:28:00.441Z,16.04
2023-05-10T09:33:02.489Z,16.14
2023-05-10T09:38:05.867Z,16.35
2023-05-10T09:43:08.252Z,16.37
2023-05-10T09:48:09.901Z,16.38
2023-05-10T09:53:15.585Z,16.50
2023-05-10T09:58:17.314Z,16.28
2023-05-10T10:03:20.929Z,15.71
2023-05-10T10:08:24.060Z,15.36
2023-05-10T10:13:25.721Z,15.52
2023-05-10T10:18:27.412Z,15.78
2023-05-10T10:23:30.408Z,16.00
2023-05-10T10:28:37.130Z,16.45
2023-05-10T10:33:45.708Z,17.30
2023-05-10T10:39:02.729Z,17.74
2023-05-10T10:44:36.578Z,17.45
2023-05-10T10:49:49.714Z,17.09
2023-05-10T10:54:53.354Z,17.35
2023-05-10T11:00:19.776Z,17.56
2023-05-10T11:05:39.367Z,17.66
2023-05-10T11:10:51.261Z,17.29
2023-05-10T11:15:52.960Z,17.11
2023-05-10T11:20:58.069Z,17.15
2023-05-10T11:26:01.525Z,17.00
2023-05-10T11:31:03.158Z,17.19
2023-05-10T11:36:05.191Z,17.53
2023-05-10T11:41:09.234Z,17.80
2023-05-10T11:46:13.346Z,17.98
2023-05-10T11:51:15.022Z,18.33
2023-05-10T11:56:18.023Z,18.75
2023-05-10T12:01:19.695Z,19.38
2023-05-10T12:06:22.262Z,19.53
2023-05-10T12:11:27.794Z,19.30
2023-05-10T12:16:30.393Z,19.35
2023-05-10T12:21:32.181Z,19.23
2023-05-10T12:26:36.177Z,19.35
2023-05-10T12:31:50.462Z,19.31
2023-05-10T12:36:52.946Z,18.89
2023-05-10T12:41:55.889Z,18.41
2023-05-10T12:46:57.612Z,18.14
2023-05-10T12:51:59.271Z,18.20
2023-05-10T12:57:02.296Z,18.25
2023-05-10T13:02:04.024Z,18.41
2023-05-10T13:07:05.851Z,18.53
2023-05-10T13:12:10.104Z,18.75
2023-05-10T13:17:12.083Z,18.70
2023-05-10T13:22:13.751Z,18.59
2023-05-10T13:27:16.703Z,18.45
2023-05-10T13:32:18.347Z,18.61
2023-05-10T13:37:19.961Z,19.05
2023-05-10T13:42:23.290Z,19.37
2023-05-10T13:47:24.983Z,19.53
2023-05-10T13:52:27.157Z,19.60
2023-05-10T13:57:30.161Z,19.73
2023-05-10T14:02:31.928Z,19.57
2023-05-10T14:07:33.720Z,19.43
2023-05-10T14:12:36.732Z,19.30
2023-05-10T14:17:38.433Z,19.25
2023-05-10T14:22:40.154Z,19.40
2023-05-10T14:27:43.225Z,19.65
2023-05-10T14:32:44.984Z,19.88
2023-05-10T14:37:46.932Z,19.98
2023-05-10T14:42:50.717Z,20.09
2023-05-10T14:47:52.521Z,20.14
2023-05-10T14:52:54.237Z,20.07
2023-05-10T14:57:57.175Z,19.79
2023-05-10T15:02:58.895Z,19.80
2023-05-10T15:08:01.209Z,19.70
2023-05-10T15:13:04.366Z,19.69
2023-05-10T15:18:06.063Z,19.48
2023-05-10T15:23:07.898Z,19.54
2023-05-10T15:28:10.873Z,19.51
2023-05-10T15:33:12.490Z,19.36
2023-05-10T15:38:14.076Z,19.32
2023-05-10T15:43:17.122Z,19.39
2023-05-10T15:48:19.169Z,19.27
2023-05-10T15:53:20.834Z,19.34
2023-05-10T15:58:23.957Z,19.32
2023-05-10T16:03:25.661Z,19.31
2023-05-10T16:08:27.886Z,19.14
2023-05-10T16:13:30.924Z,19.09
2023-05-10T16:18:32.713Z,18.95
2023-05-10T16:23:34.492Z,18.86
2023-05-10T16:28:37.504Z,18.91
2023-05-10T16:33:39.233Z,18.88
2023-05-10T16:38:40.859Z,18.96
2023-05-10T16:43:43.870Z,18.93
2023-05-10T16:48:45.493Z,18.92
2023-05-10T16:53:47.148Z,18.83
2023-05-10T16:58:50.154Z,18.66
2023-05-10T17:03:51.908Z,18.56
2023-05-10T17:08:53.631Z,18.42
2023-05-10T17:13:56.670Z,18.27
2023-05-10T17:18:58.429Z,18.25
2023-05-10T17:24:00.189Z,18.20
2023-05-10T17:29:03.563Z,18.02
2023-05-10T17:34:05.846Z,17.92
2023-05-10T17:39:07.657Z,17.75
2023-05-10T17:44:10.673Z,17.60
2023-05-10T17:49:12.345Z,17.47
2023-05-10T17:54:14.005Z,17.41
2023-05-10T17:59:17.316Z,17.36
2023-05-10T18:04:18.962Z,17.36
2023-05-10T18:09:20.678Z,17.31
2023-05-10T18:14:39.117Z,17.28
2023-05-10T18:19:42.564Z,17.23
2023-05-10T18:24:44.266Z,17.17
2023-05-10T18:29:47.294Z,17.14
2023-05-10T18:34:48.990Z,17.11
2023-05-10T18:39:50.801Z,17.06
2023-05-10T18:44:54.693Z,16.95
2023-05-10T18:49:56.407Z,16.84
2023-05-10T18:54:58.107Z,16.70
2023-05-10T19:00:01.102Z,16.64
2023-05-10T19:05:02.995Z,16.56
2023-05-10T19:10:07.447Z,16.47
2023-05-10T19:15:11.318Z,16.16
2023-05-10T19:20:13.211Z,16.25
2023-05-10T19:25:15.531Z,16.06
2023-05-10T19:30:20.241Z,15.87
2023-05-10T19:35:22.007Z,15.55
2023-05-10T19:40:27.361Z,14.87
2023-05-10T19:45:30.579Z,14.80
2023-05-10T19:50:32.431Z,14.69
2023-05-10T19:55:34.176Z,14.70
2023-05-10T20:00:37.388Z,14.73
2023-05-10T20:05:39.045Z,14.72
2023-05-10T20:10:40.695Z,14.73
2023-05-10T20:15:43.870Z,14.75
2023-05-10T20:20:45.655Z,14.75
2023-05-10T20:25:47.476Z,14.67
2023-05-10T20:30:53.181Z,14.49
2023-05-10T20:35:55.025Z,14.28
2023-05-10T20:40:56.646Z,14.12
2023-05-10T20:45:59.648Z,13.88
2023-05-10T20:51:01.604Z,13.76
2023-05-10T20:56:03.631Z,13.63
2023-05-10T21:01:06.798Z,13.59
2023-05-10T21:06:08.475Z,13.57
2023-05-10T21:11:10.127Z,13.62
2023-05-10T21:16:13.142Z,13.65
2023-05-10T21:21:14.820Z,13.48
2023-05-10T21:26:16.776Z,13.43
2023-05-10T21:31:19.789Z,13.22
2023-05-10T21:36:21.525Z,12.98
2023-05-10T21:41:23.756Z,12.72
2023-05-10T21:46:26.870Z,12.56
2023-05-10T21:51:28.708Z,12.55
2023-05-10T21:56:30.296Z,12.52
2023-05-10T22:01:33.830Z,12.52
2023-05-10T22:06:35.708Z,12.51
2023-05-10T22:11:37.325Z,12.58
2023-05-10T22:16:40.365Z,12.38
2023-05-10T22:21:42.052Z,12.25
2023-05-10T22:26:43.723Z,12.26
2023-05-10T22:31:46.637Z,12.35
2023-05-10T22:36:48.296Z,12.44
2023-05-10T22:41:49.970Z,12.37
2023-05-10T22:46:53.077Z,12.20
2023-05-10T22:51:54.675Z,12.15
2023-05-10T22:56:56.510Z,12.13
2023-05-10T23:01:59.664Z,12.07
2023-05-10T23:07:01.347Z,11.91
2023-05-10T23:12:03.129Z,11.81
2023-05-10T23:17:06.159Z,11.78
2023-05-10T23:22:08.308Z,11.75
2023-05-10T23:27:09.941Z,11.67
2023-05-10T23:32:13.012Z,11.57
2023-05-10T23:37:14.728Z,11.47
2023-05-10T23:42:16.372Z,11.45
2023-05-10T23:47:19.495Z,11.39
2023-05-10T23:52:21.094Z,11.36
2023-05-10T23:57:22.798Z,11.33
